createdAt,value
2022-09-11T00:00:52.927Z,15.00
2022-09-11T00:03:28.161Z,15.00
2022-09-11T00:06:02.599Z,14.99
2022-09-11T00:08:33.298Z,14.97
2022-09-11T00:11:07.614Z,14.97
2022-09-11T00:13:39.811Z,14.96
2022-09-11T00:16:22.660Z,14.97
2022-09-11T00:18:54.149Z,14.98
2022-09-11T00:21:25.278Z,14.98
2022-09-11T00:23:56.735Z,14.98
2022-09-11T00:26:28.098Z,14.97
2022-09-11T00:29:01.827Z,14.97
2022-09-11T00:31:33.053Z,14.97
2022-09-11T00:34:03.866Z,14.96
2022-09-11T00:36:36.081Z,14.97
2022-09-11T00:39:06.895Z,14.97
2022-09-11T00:41:39.811Z,14.97
2022-09-11T00:44:24.761Z,14.98
2022-09-11T00:46:57.582Z,14.96
2022-09-11T00:49:33.056Z,14.98
2022-09-11T00:52:10.583Z,14.95
2022-09-11T00:54:46.500Z,14.95
2022-09-11T00:57:17.201Z,14.95
2022-09-11T00:59:49.412Z,14.95
2022-09-11T01:02:27.272Z,14.96
2022-09-11T01:04:58.929Z,14.95
2022-09-11T01:07:31.587Z,14.95
2022-09-11T01:10:05.843Z,14.94
2022-09-11T01:12:45.276Z,14.94
2022-09-11T01:15:22.400Z,14.93
2022-09-11T01:18:03.903Z,14.93
2022-09-11T01:20:47.837Z,14.91
2022-09-11T01:23:42.295Z,14.92
2022-09-11T01:26:37.969Z,14.91
2022-09-11T01:29:16.236Z,14.91
2022-09-11T01:31:54.030Z,14.91
2022-09-11T01:34:35.836Z,14.91
2022-09-11T01:37:12.497Z,14.90
2022-09-11T01:39:50.947Z,14.90
2022-09-11T01:42:23.672Z,14.90
2022-09-11T01:44:57.448Z,14.91
2022-09-11T01:47:29.309Z,14.91
2022-09-11T01:50:05.816Z,14.89
2022-09-11T01:52:43.439Z,14.88
2022-09-11T01:55:19.755Z,14.87
2022-09-11T01:57:55.665Z,14.86
2022-09-11T02:00:27.229Z,14.86
2022-09-11T02:03:06.683Z,14.86
2022-09-11T02:05:45.652Z,14.84
2022-09-11T02:08:23.270Z,14.83
2022-09-11T02:11:03.596Z,14.83
2022-09-11T02:13:44.369Z,14.82
2022-09-11T02:16:22.974Z,14.81
2022-09-11T02:19:02.307Z,14.80
2022-09-11T02:21:34.016Z,14.80
2022-09-11T02:24:09.217Z,14.80
2022-09-11T02:26:44.199Z,14.80
2022-09-11T02:29:15.672Z,14.77
2022-09-11T02:31:47.845Z,14.77
2022-09-11T02:34:20.964Z,14.75
2022-09-11T02:37:07.920Z,14.74
2022-09-11T02:39:53.887Z,14.71
2022-09-11T02:42:39.673Z,14.68
2022-09-11T02:45:24.514Z,14.64
2022-09-11T02:48:13.199Z,14.62
2022-09-11T02:50:49.519Z,14.60
2022-09-11T02:53:27.167Z,14.58
2022-09-11T02:56:10.583Z,14.56
2022-09-11T02:58:46.614Z,14.56
2022-09-11T03:01:17.739Z,14.53
2022-09-11T03:03:50.846Z,14.53
2022-09-11T03:06:26.993Z,14.51
2022-09-11T03:08:59.609Z,14.49
2022-09-11T03:11:34.079Z,14.47
2022-09-11T03:14:05.358Z,14.45
2022-09-11T03:16:36.834Z,14.43
2022-09-11T03:19:08.246Z,14.41
2022-09-11T03:21:44.224Z,14.39
2022-09-11T03:24:20.938Z,14.36
2022-09-11T03:26:51.228Z,14.35
2022-09-11T03:29:21.883Z,14.31
2022-09-11T03:31:53.089Z,14.29
2022-09-11T03:34:24.593Z,14.27
2022-09-11T03:36:54.913Z,14.25
2022-09-11T03:39:26.495Z,14.23
2022-09-11T03:41:58.712Z,14.21
2022-09-11T03:44:33.500Z,14.20
2022-09-11T03:47:03.793Z,14.19
2022-09-11T03:49:34.353Z,14.18
2022-09-11T03:52:09.048Z,14.19
2022-09-11T03:54:44.855Z,14.19
2022-09-11T03:57:17.096Z,14.20
2022-09-11T03:59:49.741Z,14.20
2022-09-11T04:02:20.183Z,14.20
2022-09-11T04:04:51.225Z,14.20
2022-09-11T04:07:26.283Z,14.21
2022-09-11T04:09:57.901Z,14.21
2022-09-11T04:12:29.194Z,14.22
2022-09-11T04:14:59.885Z,14.22
2022-09-11T04:17:32.137Z,14.22
2022-09-11T04:20:04.440Z,14.23
2022-09-11T04:22:37.072Z,14.23
2022-09-11T04:25:09.284Z,14.22
2022-09-11T04:27:39.620Z,14.23
2022-09-11T04:30:12.926Z,14.23
2022-09-11T04:32:43.409Z,14.23
2022-09-11T04:35:14.401Z,14.23
2022-09-11T04:37:45.973Z,14.23
2022-09-11T04:40:18.137Z,14.23
2022-09-11T04:42:48.552Z,14.22
2022-09-11T04:45:19.164Z,14.23
2022-09-11T04:47:54.963Z,14.22
2022-09-11T04:50:28.500Z,14.22
2022-09-11T04:53:01.369Z,14.22
2022-09-11T04:55:34.417Z,14.22
2022-09-11T04:58:04.894Z,14.22
2022-09-11T05:00:35.607Z,14.22
2022-09-11T05:03:07.303Z,14.23
2022-09-11T05:05:37.574Z,14.23
2022-09-11T05:08:09.363Z,14.24
2022-09-11T05:10:42.318Z,14.26
2022-09-11T05:13:14.233Z,14.25
2022-09-11T05:15:47.130Z,14.27
2022-09-11T05:18:28.432Z,14.29
2022-09-11T05:21:09.642Z,14.31
2022-09-11T05:23:40.421Z,14.33
2022-09-11T05:26:17.348Z,14.35
2022-09-11T05:28:46.970Z,14.37
2022-09-11T05:31:19.310Z,14.38
2022-09-11T05:33:51.455Z,14.40
2022-09-11T05:36:24.407Z,14.42
2022-09-11T05:38:58.114Z,14.44
2022-09-11T05:41:29.060Z,14.47
2022-09-11T05:44:00.657Z,14.49
2022-09-11T05:46:35.397Z,14.51
2022-09-11T05:49:06.119Z,14.52
2022-09-11T05:51:38.397Z,14.54
2022-09-11T05:54:12.225Z,14.56
2022-09-11T05:56:42.588Z,14.58
2022-09-11T05:59:16.073Z,14.61
2022-09-11T06:01:47.220Z,14.64
2022-09-11T06:04:20.311Z,14.67
2022-09-11T06:06:50.748Z,14.69
2022-09-11T06:09:21.011Z,14.71
2022-09-11T06:11:55.768Z,14.72
2022-09-11T06:14:30.524Z,14.73
2022-09-11T06:17:01.529Z,14.74
2022-09-11T06:19:32.249Z,14.76
2022-09-11T06:22:04.277Z,14.78
2022-09-11T06:24:34.772Z,14.80
2022-09-11T06:27:05.896Z,14.81
2022-09-11T06:29:36.226Z,14.82
2022-09-11T06:32:08.474Z,14.86
2022-09-11T06:34:39.392Z,14.87
2022-09-11T06:37:09.868Z,14.89
2022-09-11T06:39:40.864Z,14.90
2022-09-11T06:42:11.532Z,14.91
2022-09-11T06:44:42.903Z,14.93
2022-09-11T06:47:14.895Z,14.95
2022-09-11T06:49:45.292Z,14.95
2022-09-11T06:52:16.916Z,14.95
2022-09-11T06:54:47.332Z,14.95
2022-09-11T06:57:17.706Z,14.96
2022-09-11T06:59:49.040Z,14.96
2022-09-11T07:02:19.453Z,14.98
2022-09-11T07:04:55.503Z,15.00
2022-09-11T07:07:26.577Z,15.00
2022-09-11T07:09:57.248Z,15.01
2022-09-11T07:12:28.276Z,15.01
2022-09-11T07:15:00.154Z,15.02
2022-09-11T07:17:33.903Z,15.05
2022-09-11T07:20:05.658Z,15.09
2022-09-11T07:22:36.335Z,15.11
2022-09-11T07:25:08.168Z,15.15
2022-09-11T07:27:42.929Z,15.21
2022-09-11T07:30:15.835Z,15.26
2022-09-11T07:32:48.150Z,15.29
2022-09-11T07:35:21.715Z,15.34
2022-09-11T07:37:52.875Z,15.39
2022-09-11T07:40:23.177Z,15.46
2022-09-11T07:42:54.553Z,15.51
2022-09-11T07:45:25.280Z,15.56
2022-09-11T07:47:56.452Z,15.60
2022-09-11T07:50:28.011Z,15.65
2022-09-11T07:52:59.121Z,15.71
2022-09-11T07:55:29.992Z,15.77
2022-09-11T07:58:00.486Z,15.80
2022-09-11T08:00:35.217Z,15.83
2022-09-11T08:03:08.260Z,15.83
2022-09-11T08:05:38.493Z,15.81
2022-09-11T08:08:11.151Z,15.85
2022-09-11T08:10:41.566Z,15.83
2022-09-11T08:13:12.997Z,15.81
2022-09-11T08:15:49.900Z,15.82
2022-09-11T08:18:22.982Z,15.87
2022-09-11T08:20:56.788Z,15.90
2022-09-11T08:23:28.509Z,15.90
2022-09-11T08:26:03.567Z,15.90
2022-09-11T08:28:34.008Z,15.95
2022-09-11T08:31:05.297Z,16.00
2022-09-11T08:33:35.758Z,16.05
2022-09-11T08:36:08.377Z,16.10
2022-09-11T08:38:39.383Z,16.13
2022-09-11T08:41:31.665Z,16.12
2022-09-11T08:44:07.408Z,16.13
2022-09-11T08:46:41.298Z,16.17
2022-09-11T08:49:21.504Z,16.21
2022-09-11T08:51:54.135Z,16.29
2022-09-11T08:54:34.456Z,16.31
2022-09-11T08:57:16.747Z,16.36
2022-09-11T09:00:04.562Z,16.44
2022-09-11T09:02:53.684Z,16.48
2022-09-11T09:05:32.607Z,16.57
2022-09-11T09:08:18.404Z,16.68
2022-09-11T09:10:55.445Z,16.70
2022-09-11T09:13:48.251Z,16.66
2022-09-11T09:16:31.552Z,16.74
2022-09-11T09:19:06.679Z,16.80
2022-09-11T09:21:42.548Z,16.92
2022-09-11T09:24:22.289Z,17.01
2022-09-11T09:26:57.647Z,17.13
2022-09-11T09:29:36.988Z,17.24
2022-09-11T09:32:15.071Z,17.32
2022-09-11T09:34:47.133Z,17.37
2022-09-11T09:37:21.720Z,17.42
2022-09-11T09:39:52.386Z,17.46
2022-09-11T09:42:49.587Z,17.46
2022-09-11T09:45:39.139Z,17.32
2022-09-11T09:48:12.920Z,17.23
2022-09-11T09:50:46.301Z,17.29
2022-09-11T09:53:27.382Z,17.35
2022-09-11T09:56:00.229Z,17.37
2022-09-11T09:58:41.918Z,17.44
2022-09-11T10:01:45.516Z,17.64
2022-09-11T10:04:19.906Z,17.86
2022-09-11T10:06:52.267Z,17.95
2022-09-11T10:09:29.937Z,17.93
2022-09-11T10:12:04.614Z,17.91
2022-09-11T10:14:51.402Z,17.97
2022-09-11T10:17:33.475Z,17.92
2022-09-11T10:20:23.007Z,17.84
2022-09-11T10:22:54.570Z,17.82
2022-09-11T10:25:27.327Z,17.82
2022-09-11T10:28:04.758Z,17.80
2022-09-11T10:30:40.297Z,17.76
2022-09-11T10:33:22.070Z,17.83
2022-09-11T10:35:56.224Z,17.89
2022-09-11T10:38:32.833Z,17.98
2022-09-11T10:41:08.373Z,18.12
2022-09-11T10:43:47.691Z,18.24
2022-09-11T10:46:30.395Z,18.36
2022-09-11T10:49:09.195Z,18.44
2022-09-11T10:51:46.781Z,18.43
2022-09-11T10:54:39.356Z,18.52
2022-09-11T10:57:16.516Z,18.55
2022-09-11T10:59:58.810Z,18.59
2022-09-11T11:02:33.139Z,18.64
2022-09-11T11:05:08.125Z,18.69
2022-09-11T11:08:07.563Z,18.76
2022-09-11T11:10:51.239Z,18.76
2022-09-11T11:13:38.802Z,18.75
2022-09-11T11:16:21.295Z,18.69
2022-09-11T11:19:10.417Z,18.41
2022-09-11T11:21:55.863Z,18.17
2022-09-11T11:24:40.796Z,18.15
2022-09-11T11:27:33.649Z,18.14
2022-09-11T11:30:15.222Z,18.06
2022-09-11T11:33:27.202Z,17.98
2022-09-11T11:36:05.481Z,17.90
2022-09-11T11:38:43.696Z,17.69
2022-09-11T11:41:20.450Z,17.54
2022-09-11T11:43:52.157Z,17.53
2022-09-11T11:46:26.537Z,17.57
2022-09-11T11:49:02.223Z,17.74
2022-09-11T11:51:42.051Z,17.89
2022-09-11T11:54:19.120Z,18.02
2022-09-11T11:56:52.046Z,18.14
2022-09-11T11:59:31.966Z,18.21
2022-09-11T12:02:13.108Z,18.11
2022-09-11T12:04:48.818Z,18.06
2022-09-11T12:07:26.481Z,17.97
2022-09-11T12:09:59.761Z,17.88
2022-09-11T12:12:33.932Z,17.85
2022-09-11T12:15:09.590Z,17.88
2022-09-11T12:17:43.292Z,17.95
2022-09-11T12:20:32.581Z,18.03
2022-09-11T12:23:03.158Z,18.08
2022-09-11T12:26:05.073Z,18.09
2022-09-11T12:28:35.767Z,17.98
2022-09-11T12:31:08.450Z,17.96
2022-09-11T12:33:58.190Z,17.96
2022-09-11T12:36:36.208Z,17.93
2022-09-11T12:39:19.099Z,17.91
2022-09-11T12:41:49.394Z,17.91
2022-09-11T12:44:34.000Z,17.90
2022-09-11T12:47:19.065Z,17.87
2022-09-11T12:49:58.796Z,17.82
2022-09-11T12:52:36.857Z,17.83
2022-09-11T12:55:25.937Z,17.82
2022-09-11T12:57:57.163Z,17.83
2022-09-11T13:00:38.315Z,17.81
2022-09-11T13:03:17.501Z,17.81
2022-09-11T13:05:56.557Z,17.83
2022-09-11T13:08:31.033Z,17.84
2022-09-11T13:11:37.203Z,17.90
2022-09-11T13:14:28.565Z,17.99
2022-09-11T13:17:00.391Z,18.03
2022-09-11T13:19:36.047Z,18.06
2022-09-11T13:22:23.673Z,18.14
2022-09-11T13:25:06.487Z,18.20
2022-09-11T13:27:39.449Z,18.25
2022-09-11T13:30:13.437Z,18.35
2022-09-11T13:32:45.402Z,18.40
2022-09-11T13:35:20.822Z,18.42
2022-09-11T13:37:58.265Z,18.45
2022-09-11T13:40:34.292Z,18.50
2022-09-11T13:43:05.611Z,18.54
2022-09-11T13:45:36.389Z,18.61
2022-09-11T13:48:20.417Z,18.69
2022-09-11T13:50:51.823Z,18.64
2022-09-11T13:53:24.023Z,18.64
2022-09-11T13:55:54.490Z,18.63
2022-09-11T13:58:31.184Z,18.61
2022-09-11T14:01:10.695Z,18.62
2022-09-11T14:03:46.441Z,18.64
2022-09-11T14:06:21.078Z,18.73
2022-09-11T14:08:56.189Z,18.83
2022-09-11T14:11:30.192Z,18.90
2022-09-11T14:14:09.261Z,19.02
2022-09-11T14:16:47.917Z,19.18
2022-09-11T14:19:21.491Z,19.36
2022-09-11T14:21:53.117Z,19.45
2022-09-11T14:24:34.785Z,19.53
2022-09-11T14:27:27.547Z,19.77
2022-09-11T14:29:57.951Z,20.09
2022-09-11T14:32:37.017Z,20.35
2022-09-11T14:35:11.377Z,20.63
2022-09-11T14:37:45.924Z,20.86
2022-09-11T14:40:20.249Z,20.98
2022-09-11T14:42:51.109Z,21.03
2022-09-11T14:45:23.984Z,21.05
2022-09-11T14:47:54.779Z,21.03
2022-09-11T14:50:25.559Z,20.99
2022-09-11T14:52:56.238Z,20.91
2022-09-11T14:55:26.691Z,20.89
2022-09-11T14:57:57.253Z,20.83
2022-09-11T15:00:27.628Z,20.73
2022-09-11T15:03:00.594Z,20.55
2022-09-11T15:05:32.876Z,20.38
2022-09-11T15:08:03.624Z,20.22
2022-09-11T15:10:34.569Z,20.06
2022-09-11T15:13:05.437Z,19.95
2022-09-11T15:15:35.819Z,19.83
2022-09-11T15:18:06.536Z,19.72
2022-09-11T15:20:37.032Z,19.62
2022-09-11T15:23:07.763Z,19.52
2022-09-11T15:25:38.155Z,19.43
2022-09-11T15:28:10.168Z,19.31
2022-09-11T15:30:42.017Z,19.21
2022-09-11T15:33:12.652Z,19.09
2022-09-11T15:35:43.420Z,19.00
2022-09-11T15:38:13.953Z,18.92
2022-09-11T15:40:44.337Z,18.83
2022-09-11T15:43:15.184Z,18.73
2022-09-11T15:45:46.222Z,18.67
2022-09-11T15:48:17.343Z,18.55
2022-09-11T15:50:59.285Z,18.49
2022-09-11T15:53:29.932Z,18.40
2022-09-11T15:56:07.041Z,18.30
2022-09-11T15:58:40.112Z,18.07
2022-09-11T16:01:19.333Z,17.87
2022-09-11T16:03:53.541Z,17.69
2022-09-11T16:06:25.821Z,17.66
2022-09-11T16:08:58.794Z,17.59
2022-09-11T16:11:29.673Z,17.55
2022-09-11T16:14:00.830Z,17.54
2022-09-11T16:16:31.323Z,17.53
2022-09-11T16:19:01.888Z,17.51
2022-09-11T16:21:32.369Z,17.50
2022-09-11T16:24:06.931Z,17.49
2022-09-11T16:26:38.410Z,17.48
2022-09-11T16:29:12.481Z,17.47
2022-09-11T16:31:43.803Z,17.45
2022-09-11T16:34:15.320Z,17.42
2022-09-11T16:36:46.660Z,17.39
2022-09-11T16:39:20.134Z,17.34
2022-09-11T16:41:50.991Z,17.30
2022-09-11T16:44:22.663Z,17.28
2022-09-11T16:46:53.001Z,17.29
2022-09-11T16:49:24.141Z,17.28
2022-09-11T16:51:54.520Z,17.28
2022-09-11T16:54:25.960Z,17.27
2022-09-11T16:56:56.513Z,17.24
2022-09-11T16:59:27.489Z,17.22
2022-09-11T17:01:58.782Z,17.20
2022-09-11T17:04:29.364Z,17.21
2022-09-11T17:06:59.725Z,17.21
2022-09-11T17:09:30.124Z,17.18
2022-09-11T17:12:00.519Z,17.16
2022-09-11T17:14:30.888Z,17.11
2022-09-11T17:17:01.247Z,17.08
2022-09-11T17:19:31.752Z,16.96
2022-09-11T17:22:04.032Z,16.81
2022-09-11T17:24:34.716Z,16.67
2022-09-11T17:27:05.075Z,16.56
2022-09-11T17:29:35.880Z,16.50
2022-09-11T17:32:26.903Z,16.52
2022-09-11T17:34:58.103Z,16.56
2022-09-11T17:37:28.966Z,16.55
2022-09-11T17:39:59.479Z,16.55
2022-09-11T17:42:32.355Z,16.56
2022-09-11T17:45:03.915Z,16.57
2022-09-11T17:47:36.008Z,16.57
2022-09-11T17:50:07.460Z,16.56
2022-09-11T17:52:38.363Z,16.56
2022-09-11T17:55:11.187Z,16.56
2022-09-11T17:57:44.361Z,16.54
2022-09-11T18:00:16.479Z,16.56
2022-09-11T18:02:50.167Z,16.59
2022-09-11T18:05:21.116Z,16.57
2022-09-11T18:07:52.076Z,16.56
2022-09-11T18:10:22.546Z,16.55
2022-09-11T18:12:53.749Z,16.53
2022-09-11T18:15:25.955Z,16.51
2022-09-11T18:17:56.758Z,16.49
2022-09-11T18:20:27.197Z,16.48
2022-09-11T18:22:58.981Z,16.44
2022-09-11T18:25:30.212Z,16.38
2022-09-11T18:28:00.568Z,16.33
2022-09-11T18:30:31.823Z,16.27
2022-09-11T18:33:02.223Z,16.21
2022-09-11T18:35:34.401Z,16.15
2022-09-11T18:38:05.431Z,16.11
2022-09-11T18:40:35.864Z,16.07
2022-09-11T18:43:08.990Z,16.02
2022-09-11T18:45:41.695Z,15.97
2022-09-11T18:48:12.204Z,15.94
2022-09-11T18:50:42.553Z,15.92
2022-09-11T18:53:13.437Z,15.90
2022-09-11T18:55:43.887Z,15.87
2022-09-11T18:58:14.295Z,15.85
2022-09-11T19:00:44.801Z,15.84
2022-09-11T19:03:20.729Z,15.82
2022-09-11T19:05:53.354Z,15.79
2022-09-11T19:08:23.809Z,15.76
2022-09-11T19:10:54.213Z,15.73
2022-09-11T19:13:27.742Z,15.70
2022-09-11T19:16:01.410Z,15.68
2022-09-11T19:18:31.875Z,15.65
2022-09-11T19:21:04.190Z,15.63
2022-09-11T19:23:37.529Z,15.60
2022-09-11T19:26:11.722Z,15.59
2022-09-11T19:28:44.013Z,15.57
2022-09-11T19:31:16.496Z,15.55
2022-09-11T19:33:47.360Z,15.54
2022-09-11T19:36:20.168Z,15.54
2022-09-11T19:38:52.954Z,15.53
2022-09-11T19:41:25.992Z,15.52
2022-09-11T19:44:00.337Z,15.50
2022-09-11T19:46:33.645Z,15.50
2022-09-11T19:49:06.775Z,15.49
2022-09-11T19:51:40.277Z,15.48
2022-09-11T19:54:12.072Z,15.47
2022-09-11T19:56:44.523Z,15.46
2022-09-11T19:59:15.254Z,15.45
2022-09-11T20:01:45.925Z,15.42
2022-09-11T20:04:17.712Z,15.41
2022-09-11T20:09:33.661Z,15.41
2022-09-11T20:12:04.397Z,15.40
2022-09-11T20:14:34.624Z,15.42
2022-09-11T20:17:08.292Z,15.42
2022-09-11T20:19:40.751Z,15.41
2022-09-11T20:22:11.045Z,15.41
2022-09-11T20:24:41.379Z,15.42
2022-09-11T20:27:13.874Z,15.42
2022-09-11T20:29:44.473Z,15.42
2022-09-11T20:32:16.815Z,15.41
2022-09-11T20:34:47.099Z,15.40
2022-09-11T20:37:17.359Z,15.39
2022-09-11T20:39:47.797Z,15.38
2022-09-11T20:42:18.093Z,15.37
2022-09-11T20:44:49.104Z,15.37
2022-09-11T20:47:19.488Z,15.38
2022-09-11T20:49:49.820Z,15.38
2022-09-11T20:52:20.127Z,15.38
2022-09-11T20:54:50.531Z,15.38
2022-09-11T20:57:20.829Z,15.38
2022-09-11T20:59:51.077Z,15.37
2022-09-11T21:02:21.768Z,15.37
2022-09-11T21:04:52.337Z,15.36
2022-09-11T21:07:22.617Z,15.33
2022-09-11T21:09:52.895Z,15.29
2022-09-11T21:12:23.346Z,15.26
2022-09-11T21:14:53.743Z,15.23
2022-09-11T21:17:24.046Z,15.21
2022-09-11T21:19:57.290Z,15.17
2022-09-11T21:22:27.965Z,15.15
2022-09-11T21:24:58.216Z,15.11
2022-09-11T21:27:28.469Z,15.09
2022-09-11T21:29:58.801Z,15.07
2022-09-11T21:32:29.124Z,15.04
2022-09-11T21:35:00.085Z,15.02
2022-09-11T21:37:30.449Z,14.98
2022-09-11T21:40:00.798Z,14.96
2022-09-11T21:42:33.943Z,14.93
2022-09-11T21:45:04.337Z,14.91
2022-09-11T21:47:34.646Z,14.89
2022-09-11T21:50:07.239Z,14.87
2022-09-11T21:52:37.718Z,14.82
2022-09-11T21:55:11.442Z,14.78
2022-09-11T21:57:41.674Z,14.75
2022-09-11T22:00:15.126Z,14.73
2022-09-11T22:02:45.765Z,14.71
2022-09-11T22:05:16.136Z,14.70
2022-09-11T22:07:46.476Z,14.69
2022-09-11T22:10:16.964Z,14.68
2022-09-11T22:12:47.265Z,14.68
2022-09-11T22:15:18.544Z,14.68
2022-09-11T22:17:50.742Z,14.68
2022-09-11T22:20:21.089Z,14.68
2022-09-11T22:22:52.863Z,14.67
2022-09-11T22:25:23.162Z,14.67
2022-09-11T22:28:02.528Z,14.66
2022-09-11T22:30:33.522Z,14.65
2022-09-11T22:33:06.267Z,14.64
2022-09-11T22:35:37.351Z,14.62
2022-09-11T22:38:07.589Z,14.63
2022-09-11T22:40:37.854Z,14.62
2022-09-11T22:43:10.163Z,14.61
2022-09-11T22:45:40.732Z,14.59
2022-09-11T22:48:10.996Z,14.56
2022-09-11T22:50:43.368Z,14.52
2022-09-11T22:53:15.564Z,14.46
2022-09-11T22:55:49.667Z,14.41
2022-09-11T22:58:20.053Z,14.37
2022-09-11T23:00:51.764Z,14.39
2022-09-11T23:03:22.561Z,14.42
2022-09-11T23:06:16.098Z,14.44
2022-09-11T23:08:47.301Z,14.45
2022-09-11T23:11:19.776Z,14.46
2022-09-11T23:13:50.783Z,14.45
2022-09-11T23:16:23.296Z,14.42
2022-09-11T23:18:57.702Z,14.40
2022-09-11T23:21:29.433Z,14.38
2022-09-11T23:24:00.858Z,14.35
2022-09-11T23:26:32.091Z,14.34
2022-09-11T23:29:02.425Z,14.31
2022-09-11T23:31:34.529Z,14.29
2022-09-11T23:34:09.649Z,14.26
2022-09-11T23:36:39.900Z,14.26
2022-09-11T23:39:10.184Z,14.24
2022-09-11T23:41:40.477Z,14.21
2022-09-11T23:44:11.746Z,14.18
2022-09-11T23:46:42.309Z,14.15
2022-09-11T23:49:14.683Z,14.12
2022-09-11T23:51:47.743Z,14.10
2022-09-11T23:54:18.019Z,14.08
2022-09-11T23:56:48.931Z,14.07
2022-09-11T23:59:21.277Z,14.05
